createdAt,value
2022-10-28T00:01:44.428Z,98339.03
2022-10-28T00:04:13.882Z,98341.19
2022-10-28T00:06:43.392Z,98340.09
2022-10-28T00:09:12.876Z,98344.44
2022-10-28T00:11:42.444Z,98337.03
2022-10-28T00:14:13.702Z,98343.31
2022-10-28T00:16:43.474Z,98331.66
2022-10-28T00:19:13.914Z,98331.97
2022-10-28T00:21:44.766Z,98335.28
2022-10-28T00:24:15.370Z,98326.78
2022-10-28T00:26:46.101Z,98339.56
2022-10-28T00:29:17.310Z,98337.13
2022-10-28T00:31:47.260Z,98338.22
2022-10-28T00:34:21.377Z,98334.75
2022-10-28T00:36:51.190Z,98320.56
2022-10-28T00:39:22.178Z,98342.88
2022-10-28T00:41:53.476Z,98334.25
2022-10-28T00:44:41.504Z,98338.97
2022-10-28T00:47:29.106Z,98337.00
2022-10-28T00:50:00.746Z,98339.75
2022-10-28T00:52:32.674Z,98337.25
2022-10-28T00:55:04.174Z,98341.66
2022-10-28T00:57:39.545Z,98343.34
2022-10-28T01:00:09.677Z,98334.38
2022-10-28T01:02:44.690Z,98340.41
2022-10-28T01:05:16.008Z,98335.97
2022-10-28T01:07:45.962Z,98328.94
2022-10-28T01:10:16.557Z,98335.38
2022-10-28T01:12:57.353Z,98334.31
2022-10-28T01:15:32.581Z,98335.72
2022-10-28T01:18:20.710Z,98339.34
2022-10-28T01:20:59.127Z,98336.03
2022-10-28T01:23:38.801Z,98339.31
2022-10-28T01:26:26.918Z,98331.16
2022-10-28T01:29:08.476Z,98338.53
2022-10-28T01:31:49.798Z,98330.09
2022-10-28T01:34:28.442Z,98321.94
2022-10-28T01:37:06.238Z,98317.56
2022-10-28T01:39:40.456Z,98316.97
2022-10-28T01:42:10.044Z,98317.63
2022-10-28T01:44:49.517Z,98318.38
2022-10-28T01:47:28.779Z,98311.25
2022-10-28T01:50:08.701Z,98314.25
2022-10-28T01:52:40.357Z,98321.38
2022-10-28T01:55:16.287Z,98315.66
2022-10-28T01:57:46.262Z,98317.03
2022-10-28T02:00:16.002Z,98314.88
2022-10-28T02:02:45.721Z,98311.25
2022-10-28T02:05:33.921Z,98303.91
2022-10-28T02:08:06.542Z,98304.00
2022-10-28T02:10:38.932Z,98297.75
2022-10-28T02:13:12.383Z,98297.19
2022-10-28T02:15:58.396Z,98297.75
2022-10-28T02:18:45.023Z,98299.66
2022-10-28T02:21:31.705Z,98302.97
2022-10-28T02:24:21.406Z,98305.66
2022-10-28T02:26:56.413Z,98304.81
2022-10-28T02:29:40.648Z,98309.44
2022-10-28T02:32:13.159Z,98302.38
2022-10-28T02:34:45.066Z,98307.25
2022-10-28T02:37:16.171Z,98301.84
2022-10-28T02:39:49.258Z,98310.00
2022-10-28T02:42:24.619Z,98308.34
2022-10-28T02:44:59.869Z,98309.97
2022-10-28T02:47:35.424Z,98311.66
2022-10-28T02:50:10.246Z,98301.81
2022-10-28T02:52:39.785Z,98298.56
2022-10-28T02:55:09.615Z,98301.59
2022-10-28T02:57:42.109Z,98297.22
2022-10-28T03:00:13.251Z,98302.13
2022-10-28T03:02:42.780Z,98298.31
2022-10-28T03:05:12.425Z,98302.97
2022-10-28T03:07:41.870Z,98302.97
2022-10-28T03:10:11.773Z,98309.75
2022-10-28T03:12:41.273Z,98319.59
2022-10-28T03:15:11.414Z,98305.16
2022-10-28T03:17:40.826Z,98306.25
2022-10-28T03:20:10.890Z,98295.94
2022-10-28T03:22:40.368Z,98304.88
2022-10-28T03:25:10.078Z,98297.28
2022-10-28T03:27:42.202Z,98305.25
2022-10-28T03:30:11.830Z,98315.28
2022-10-28T03:32:43.859Z,98304.13
2022-10-28T03:35:13.598Z,98307.41
2022-10-28T03:37:46.781Z,98302.78
2022-10-28T03:40:16.718Z,98306.91
2022-10-28T03:42:46.453Z,98311.03
2022-10-28T03:45:15.929Z,98301.22
2022-10-28T03:47:45.434Z,98299.56
2022-10-28T03:50:14.868Z,98298.47
2022-10-28T03:52:45.419Z,98303.91
2022-10-28T03:55:15.111Z,98310.13
2022-10-28T03:57:44.505Z,98304.16
2022-10-28T04:00:14.225Z,98309.09
2022-10-28T04:02:43.665Z,98300.91
2022-10-28T04:05:13.302Z,98301.22
2022-10-28T04:07:42.740Z,98306.34
2022-10-28T04:10:12.458Z,98302.03
2022-10-28T04:12:41.925Z,98298.19
2022-10-28T04:15:11.570Z,98298.72
2022-10-28T04:17:41.011Z,98309.09
2022-10-28T04:20:10.996Z,98297.13
2022-10-28T04:22:40.461Z,98299.59
2022-10-28T04:25:10.119Z,98290.84
2022-10-28T04:27:39.692Z,98297.94
2022-10-28T04:30:12.466Z,98291.63
2022-10-28T04:32:42.388Z,98296.28
2022-10-28T04:35:12.622Z,98300.16
2022-10-28T04:37:42.661Z,98298.50
2022-10-28T04:40:12.272Z,98299.31
2022-10-28T04:42:41.727Z,98297.41
2022-10-28T04:45:11.726Z,98303.69
2022-10-28T04:47:41.289Z,98300.69
2022-10-28T04:50:10.967Z,98299.59
2022-10-28T04:52:40.444Z,98297.75
2022-10-28T04:55:10.108Z,98294.97
2022-10-28T04:57:39.513Z,98297.13
2022-10-28T05:00:09.186Z,98287.38
2022-10-28T05:02:46.036Z,98292.56
2022-10-28T05:07:47.059Z,98289.88
2022-10-28T05:10:18.296Z,98286.03
2022-10-28T05:12:48.579Z,98281.66
2022-10-28T05:15:19.695Z,98285.75
2022-10-28T05:17:50.609Z,98275.38
2022-10-28T05:20:20.494Z,98284.06
2022-10-28T05:22:55.026Z,98275.63
2022-10-28T05:25:25.638Z,98284.66
2022-10-28T05:27:55.444Z,98283.50
2022-10-28T05:30:24.968Z,98283.50
2022-10-28T05:32:55.374Z,98280.25
2022-10-28T05:35:24.986Z,98283.81
2022-10-28T05:37:54.458Z,98278.88
2022-10-28T05:40:23.968Z,98287.34
2022-10-28T05:42:53.750Z,98288.13
2022-10-28T05:45:23.509Z,98290.91
2022-10-28T05:47:53.253Z,98280.31
2022-10-28T05:50:23.345Z,98284.13
2022-10-28T05:52:54.209Z,98291.19
2022-10-28T05:55:24.514Z,98291.53
2022-10-28T05:57:55.829Z,98289.59
2022-10-28T06:00:26.976Z,98296.41
2022-10-28T06:02:56.768Z,98293.09
2022-10-28T06:05:27.028Z,98306.47
2022-10-28T06:07:56.515Z,98311.13
2022-10-28T06:10:26.099Z,98304.84
2022-10-28T06:12:56.073Z,98308.34
2022-10-28T06:15:25.908Z,98319.25
2022-10-28T06:17:55.383Z,98318.69
2022-10-28T06:20:25.031Z,98322.44
2022-10-28T06:22:55.750Z,98321.63
2022-10-28T06:25:26.328Z,98319.44
2022-10-28T06:27:55.915Z,98329.53
2022-10-28T06:30:26.426Z,98325.44
2022-10-28T06:32:59.074Z,98321.34
2022-10-28T06:35:28.643Z,98326.50
2022-10-28T06:37:58.636Z,98334.66
